createdAt,value
2022-11-21T00:04:28.256Z,26.98
2022-11-21T00:09:30.305Z,29.17
2022-11-21T00:14:34.283Z,24.70
2022-11-21T00:19:36.137Z,30.38
2022-11-21T00:24:38.024Z,36.15
2022-11-21T00:29:39.851Z,32.78
2022-11-21T00:34:41.690Z,31.08
2022-11-21T00:39:43.545Z,28.33
2022-11-21T00:44:45.364Z,28.40
2022-11-21T00:49:47.263Z,30.45
2022-11-21T00:54:49.114Z,27.98
2022-11-21T00:59:50.921Z,34.58
2022-11-21T01:04:52.746Z,37.17
2022-11-21T01:09:54.550Z,36.00
2022-11-21T01:14:56.353Z,36.67
2022-11-21T01:19:58.171Z,36.92
2022-11-21T01:25:00.004Z,35.60
2022-11-21T01:30:01.834Z,33.03
2022-11-21T01:35:03.747Z,37.28
2022-11-21T01:40:05.861Z,33.70
2022-11-21T01:45:45.200Z,39.30
2022-11-21T01:50:47.334Z,32.20
2022-11-21T01:55:49.923Z,35.17
2022-11-21T02:00:51.895Z,31.08
2022-11-21T02:05:55.519Z,25.55
2022-11-21T02:11:09.567Z,15.93
2022-11-21T02:16:11.722Z,9.98
2022-11-21T02:21:39.473Z,6.88
2022-11-21T02:26:42.367Z,4.85
2022-11-21T02:31:44.263Z,4.13
2022-11-21T02:36:47.569Z,4.72
2022-11-21T02:42:23.437Z,3.05
2022-11-21T02:47:26.313Z,4.03
2022-11-21T02:52:28.083Z,3.40
2022-11-21T02:57:29.868Z,3.92
2022-11-21T03:02:32.100Z,4.07
2022-11-21T03:07:34.565Z,1.88
2022-11-21T03:12:37.675Z,2.65
2022-11-21T03:17:40.045Z,3.22
2022-11-21T03:22:41.865Z,3.55
2022-11-21T03:27:43.611Z,2.10
2022-11-21T03:32:45.368Z,3.17
2022-11-21T03:37:48.859Z,3.22
2022-11-21T03:42:50.613Z,3.45
2022-11-21T03:47:52.410Z,1.95
2022-11-21T03:52:54.204Z,3.78
2022-11-21T03:57:55.956Z,2.38
2022-11-21T04:02:57.764Z,3.50
2022-11-21T04:07:59.551Z,2.15
2022-11-21T04:13:01.377Z,2.55
2022-11-21T04:18:03.159Z,2.30
2022-11-21T04:23:05.422Z,2.50
2022-11-21T04:28:07.565Z,2.83
2022-11-21T04:33:10.857Z,4.95
2022-11-21T04:38:14.200Z,2.90
2022-11-21T04:43:16.036Z,1.55
2022-11-21T04:48:17.846Z,3.65
2022-11-21T04:53:19.660Z,1.50
2022-11-21T04:58:21.518Z,0.73
2022-11-21T05:03:23.381Z,1.00
2022-11-21T05:08:25.217Z,5.65
2022-11-21T05:13:27.001Z,19.15
2022-11-21T05:18:28.802Z,9.13
2022-11-21T05:23:30.902Z,5.38
2022-11-21T05:28:32.702Z,2.42
2022-11-21T05:33:34.530Z,1.05
2022-11-21T05:38:36.300Z,1.48
2022-11-21T05:43:47.153Z,0.47
2022-11-21T05:48:50.097Z,3.75
2022-11-21T05:53:51.951Z,0.93
2022-11-21T05:58:57.816Z,1.23
2022-11-21T06:04:01.720Z,2.85
2022-11-21T06:09:05.118Z,1.05
2022-11-21T06:14:07.065Z,0.80
2022-11-21T06:19:08.863Z,1.70
2022-11-21T06:24:12.284Z,4.35
2022-11-21T06:29:14.172Z,4.82
2022-11-21T06:34:16.010Z,8.63
2022-11-21T06:39:17.812Z,8.75
2022-11-21T06:44:19.846Z,6.50
2022-11-21T06:49:22.393Z,6.70
2022-11-21T06:54:24.287Z,7.55
2022-11-21T06:59:26.101Z,4.30
2022-11-21T07:04:28.171Z,4.95
2022-11-21T07:09:34.163Z,7.38
2022-11-21T07:14:36.092Z,3.63
2022-11-21T07:19:40.853Z,4.00
2022-11-21T07:24:42.999Z,8.55
2022-11-21T07:29:44.863Z,3.72
2022-11-21T07:34:46.732Z,5.63
2022-11-21T07:39:48.641Z,5.53
2022-11-21T07:44:50.451Z,5.05
2022-11-21T07:49:52.317Z,7.38
2022-11-21T07:54:54.353Z,10.35
2022-11-21T07:59:56.436Z,9.90
2022-11-21T08:04:58.485Z,9.30
2022-11-21T08:10:00.336Z,10.80
2022-11-21T08:15:02.367Z,13.32
2022-11-21T08:20:05.319Z,13.32
2022-11-21T08:25:08.573Z,12.88
2022-11-21T08:30:11.964Z,14.65
2022-11-21T08:35:13.773Z,21.20
2022-11-21T08:40:15.803Z,22.00
2022-11-21T08:45:17.594Z,20.65
2022-11-21T08:50:19.861Z,22.38
2022-11-21T08:55:23.177Z,19.77
2022-11-21T09:00:25.162Z,22.90
2022-11-21T09:05:26.961Z,20.05
2022-11-21T09:10:29.606Z,17.70
2022-11-21T09:15:49.970Z,19.30
2022-11-21T09:20:51.812Z,21.63
2022-11-21T09:25:53.653Z,19.33
2022-11-21T09:30:55.465Z,20.60
2022-11-21T09:36:01.143Z,21.88
2022-11-21T09:41:35.916Z,24.20
2022-11-21T09:46:46.994Z,25.15
2022-11-21T09:51:49.955Z,24.17
2022-11-21T09:56:54.078Z,29.75
2022-11-21T10:01:57.062Z,29.10
2022-11-21T10:07:11.432Z,35.97
2022-11-21T10:12:34.552Z,26.67
2022-11-21T10:17:45.029Z,27.35
2022-11-21T10:22:57.762Z,30.08
2022-11-21T10:28:04.642Z,29.77
2022-11-21T10:33:15.343Z,29.90
2022-11-21T10:38:21.916Z,27.58
2022-11-21T10:43:42.364Z,28.58
2022-11-21T10:48:58.966Z,29.33
2022-11-21T10:54:32.528Z,31.27
2022-11-21T10:59:34.398Z,29.17
2022-11-21T11:04:44.598Z,32.63
2022-11-21T11:09:49.580Z,33.08
2022-11-21T11:14:55.920Z,32.15
2022-11-21T11:20:38.627Z,29.60
2022-11-21T11:25:40.459Z,32.00
2022-11-21T11:30:43.596Z,31.73
2022-11-21T11:35:47.088Z,33.47
2022-11-21T11:40:49.219Z,34.05
2022-11-21T11:46:12.675Z,33.78
2022-11-21T11:51:39.881Z,30.77
2022-11-21T11:56:43.588Z,34.33
2022-11-21T12:02:07.482Z,33.05
2022-11-21T12:08:33.192Z,41.58
2022-11-21T12:13:09.770Z,39.35
2022-11-21T12:18:26.073Z,42.35
2022-11-21T12:23:39.923Z,45.08
2022-11-21T12:29:03.612Z,39.55
2022-11-21T12:34:26.479Z,40.78
2022-11-21T12:39:53.457Z,45.08
2022-11-21T12:45:29.088Z,46.95
2022-11-21T12:51:15.499Z,45.22
2022-11-21T12:56:32.953Z,43.30
2022-11-21T13:01:50.533Z,39.50
2022-11-21T13:06:55.706Z,38.95
2022-11-21T13:12:06.072Z,38.17
2022-11-21T13:17:45.060Z,35.75
2022-11-21T13:22:47.621Z,42.72
2022-11-21T13:27:54.003Z,47.20
2022-11-21T13:32:56.949Z,56.58
2022-11-21T13:38:02.439Z,48.65
2022-11-21T13:49:08.849Z,64.03
2022-11-21T13:54:34.268Z,54.30
2022-11-21T13:59:57.184Z,58.88
2022-11-21T14:05:14.285Z,55.15
2022-11-21T14:10:28.044Z,57.15
2022-11-21T14:15:58.794Z,53.20
2022-11-21T14:21:03.497Z,55.97
2022-11-21T14:26:12.887Z,59.22
2022-11-21T14:31:14.947Z,61.92
2022-11-21T14:36:22.450Z,51.88
2022-11-21T14:41:26.425Z,54.83
2022-11-21T14:46:39.541Z,54.30
2022-11-21T14:51:43.991Z,68.78
2022-11-21T14:56:58.871Z,64.28
2022-11-21T15:02:04.359Z,67.32
2022-11-21T15:07:31.636Z,54.45
2022-11-21T15:12:47.938Z,58.90
2022-11-21T15:18:25.783Z,56.03
2022-11-21T15:23:32.961Z,62.57
2022-11-21T15:28:34.831Z,64.25
2022-11-21T15:39:22.468Z,66.78
2022-11-21T15:44:24.365Z,74.40
2022-11-21T15:49:32.915Z,76.38
2022-11-21T15:54:48.491Z,70.57
2022-11-21T15:57:13.882Z,63.75
2022-11-21T15:59:50.495Z,79.63
2022-11-21T16:04:53.543Z,75.38
2022-11-21T16:09:56.096Z,67.05
2022-11-21T16:14:57.934Z,73.20
2022-11-21T16:19:59.731Z,68.40
2022-11-21T16:25:01.667Z,73.10
2022-11-21T16:30:04.270Z,65.38
2022-11-21T16:35:06.584Z,63.08
2022-11-21T16:40:10.099Z,74.93
2022-11-21T16:45:12.063Z,73.30
2022-11-21T16:50:13.972Z,69.97
2022-11-21T16:55:15.798Z,75.68
2022-11-21T17:00:18.287Z,68.07
2022-11-21T17:05:21.029Z,67.80
2022-11-21T17:10:23.541Z,62.95
2022-11-21T17:15:25.409Z,64.53
2022-11-21T17:20:27.544Z,70.75
2022-11-21T17:25:29.910Z,76.78
2022-11-21T17:30:32.974Z,62.42
2022-11-21T17:35:35.733Z,62.60
2022-11-21T17:40:37.609Z,59.55
2022-11-21T17:45:39.419Z,68.10
2022-11-21T17:50:41.289Z,63.92
2022-11-21T17:55:43.107Z,62.53
2022-11-21T18:00:45.086Z,65.63
2022-11-21T18:05:51.486Z,60.05
2022-11-21T18:10:54.082Z,67.05
2022-11-21T18:15:56.459Z,62.72
2022-11-21T18:21:10.229Z,81.22
2022-11-21T18:26:17.699Z,79.30
2022-11-21T18:31:21.710Z,58.75
2022-11-21T18:36:25.779Z,331.65
2022-11-21T18:41:30.394Z,205.70
2022-11-21T18:46:34.720Z,72.82
2022-11-21T18:51:36.856Z,142.90
2022-11-21T18:56:40.494Z,51.85
2022-11-21T19:01:42.484Z,52.20
2022-11-21T19:06:44.420Z,46.30
2022-11-21T19:11:46.298Z,39.22
2022-11-21T19:16:48.115Z,47.28
2022-11-21T19:21:49.991Z,45.70
2022-11-21T19:26:51.856Z,38.22
2022-11-21T19:31:53.727Z,36.03
2022-11-21T19:36:55.615Z,28.67
2022-11-21T19:41:57.536Z,32.92
2022-11-21T19:46:59.362Z,35.05
2022-11-21T19:52:01.209Z,28.25
2022-11-21T19:57:03.088Z,32.13
2022-11-21T20:02:05.034Z,27.30
2022-11-21T20:07:07.980Z,24.17
2022-11-21T20:12:10.062Z,23.17
2022-11-21T20:17:11.981Z,26.30
2022-11-21T20:22:14.286Z,40.75
2022-11-21T20:27:16.121Z,20.25
2022-11-21T20:32:17.956Z,16.95
2022-11-21T20:37:19.743Z,18.42
2022-11-21T20:42:21.748Z,12.73
2022-11-21T20:47:23.636Z,15.02
2022-11-21T20:57:47.638Z,23.42
2022-11-21T21:02:49.721Z,17.35
2022-11-21T21:07:51.887Z,19.00
2022-11-21T21:12:53.800Z,17.27
2022-11-21T21:17:55.670Z,20.50
2022-11-21T21:22:57.563Z,21.25
2022-11-21T21:27:59.372Z,20.05
2022-11-21T21:33:01.688Z,16.30
2022-11-21T21:38:08.667Z,15.10
2022-11-21T21:43:12.020Z,23.05
2022-11-21T21:48:13.833Z,18.00
2022-11-21T21:53:15.670Z,18.27
2022-11-21T21:58:17.476Z,21.25
2022-11-21T22:03:19.329Z,16.60
2022-11-21T22:08:21.135Z,19.50
2022-11-21T22:13:23.106Z,19.00
2022-11-21T22:18:25.052Z,19.85
2022-11-21T22:23:27.319Z,23.65
2022-11-21T22:28:29.918Z,19.65
2022-11-21T22:33:32.294Z,22.35
2022-11-21T22:38:35.131Z,21.58
2022-11-21T22:43:36.978Z,19.77
2022-11-21T22:48:39.524Z,29.45
2022-11-21T22:53:41.610Z,26.05
2022-11-21T22:58:43.884Z,29.77
2022-11-21T23:03:46.854Z,28.02
2022-11-21T23:08:49.351Z,27.17
2022-11-21T23:13:51.585Z,28.38
2022-11-21T23:18:54.899Z,32.40
2022-11-21T23:23:56.731Z,30.20
2022-11-21T23:29:01.297Z,27.85
2022-11-21T23:34:07.022Z,27.40
2022-11-21T23:39:09.462Z,24.30
2022-11-21T23:44:11.285Z,29.60
2022-11-21T23:49:13.071Z,25.55
2022-11-21T23:54:14.866Z,24.60
2022-11-21T23:59:16.646Z,25.45
